createdAt,value
2019-03-20T00:00:18.895Z,0.95
2019-03-20T00:02:47.908Z,0.90
2019-03-20T00:05:16.762Z,0.88
2019-03-20T00:07:45.683Z,0.87
2019-03-20T00:10:15.043Z,0.86
2019-03-20T00:12:44.143Z,0.86
2019-03-20T00:15:13.099Z,0.85
2019-03-20T00:17:42.237Z,0.83
2019-03-20T00:20:11.870Z,0.82
2019-03-20T00:22:42.966Z,0.79
2019-03-20T00:25:11.989Z,0.75
2019-03-20T00:27:41.357Z,0.75
2019-03-20T00:30:11.827Z,0.76
2019-03-20T00:32:40.735Z,0.77
2019-03-20T00:35:10.039Z,0.76
2019-03-20T00:37:39.068Z,0.74
2019-03-20T00:40:09.200Z,0.72
2019-03-20T00:42:38.501Z,0.71
2019-03-20T00:45:08.745Z,0.71
2019-03-20T00:47:38.187Z,0.71
2019-03-20T00:50:09.533Z,0.68
2019-03-20T00:52:38.774Z,0.68
2019-03-20T00:55:08.006Z,0.71
2019-03-20T00:57:37.305Z,0.73
2019-03-20T01:00:09.082Z,0.73
2019-03-20T01:02:38.003Z,0.71
2019-03-20T01:05:12.723Z,0.72
2019-03-20T01:07:40.833Z,0.71
2019-03-20T01:10:11.520Z,0.72
2019-03-20T01:12:40.744Z,0.71
2019-03-20T01:15:09.985Z,0.71
2019-03-20T01:17:39.002Z,0.72
2019-03-20T01:20:09.131Z,0.74
2019-03-20T01:22:39.315Z,0.75
2019-03-20T01:25:10.854Z,0.75
2019-03-20T01:27:40.166Z,0.76
2019-03-20T01:30:12.089Z,0.74
2019-03-20T01:32:40.985Z,0.71
2019-03-20T01:35:10.225Z,0.68
2019-03-20T01:37:39.327Z,0.67
2019-03-20T01:40:08.612Z,0.67
2019-03-20T01:42:37.636Z,0.66
2019-03-20T01:45:06.685Z,0.68
2019-03-20T01:47:36.120Z,0.65
2019-03-20T01:50:05.561Z,0.65
2019-03-20T01:52:34.755Z,0.66
2019-03-20T01:55:04.084Z,0.64
2019-03-20T01:57:33.226Z,0.65
2019-03-20T02:00:02.081Z,0.67
2019-03-20T02:02:31.464Z,0.69
2019-03-20T02:08:41.370Z,0.72
2019-03-20T02:11:10.544Z,0.74
2019-03-20T02:13:39.832Z,0.83
2019-03-20T02:16:08.722Z,0.90
2019-03-20T02:19:11.524Z,0.96
2019-03-20T02:21:40.737Z,1.00
2019-03-20T02:24:10.019Z,1.03
2019-03-20T02:26:38.942Z,1.04
2019-03-20T02:29:08.126Z,1.05
2019-03-20T02:31:37.125Z,1.02
2019-03-20T02:34:06.326Z,1.05
2019-03-20T02:36:35.354Z,1.04
2019-03-20T02:39:06.345Z,1.05
2019-03-20T02:41:35.877Z,1.07
2019-03-20T02:44:05.443Z,1.08
2019-03-20T02:46:34.725Z,1.07
2019-03-20T02:49:06.746Z,1.05
2019-03-20T02:51:35.805Z,1.07
2019-03-20T02:54:04.961Z,1.07
2019-03-20T02:56:33.997Z,1.12
2019-03-20T02:59:03.520Z,1.10
2019-03-20T03:01:32.704Z,1.11
2019-03-20T03:04:01.636Z,1.13
2019-03-20T03:06:30.836Z,1.18
2019-03-20T03:09:00.002Z,1.23
2019-03-20T03:11:29.332Z,1.27
2019-03-20T03:13:58.649Z,1.33
2019-03-20T03:16:28.240Z,1.38
2019-03-20T03:18:57.075Z,1.43
2019-03-20T03:21:26.292Z,1.47
2019-03-20T03:23:55.585Z,1.49
2019-03-20T03:26:24.814Z,1.50
2019-03-20T03:28:53.912Z,1.53
2019-03-20T03:31:22.919Z,1.59
2019-03-20T03:33:51.761Z,1.66
2019-03-20T03:36:21.884Z,1.71
2019-03-20T03:38:51.363Z,1.75
2019-03-20T03:41:20.613Z,1.78
2019-03-20T03:47:22.809Z,1.84
2019-03-20T03:49:51.944Z,1.88
2019-03-20T03:52:21.736Z,1.90
2019-03-20T03:54:53.370Z,1.94
2019-03-20T04:00:54.801Z,1.98
2019-03-20T04:03:23.945Z,1.99
2019-03-20T04:05:52.892Z,2.02
2019-03-20T04:08:21.936Z,2.03
2019-03-20T04:10:50.965Z,2.04
2019-03-20T04:13:22.495Z,2.03
2019-03-20T04:15:51.457Z,2.07
2019-03-20T04:18:20.444Z,2.10
2019-03-20T04:20:49.574Z,2.12
2019-03-20T04:23:18.557Z,2.14
2019-03-20T04:25:47.553Z,2.15
2019-03-20T04:28:16.840Z,2.18
2019-03-20T04:30:45.647Z,2.17
2019-03-20T04:33:16.177Z,2.14
2019-03-20T04:35:45.124Z,2.10
2019-03-20T04:38:14.017Z,2.05
2019-03-20T04:40:43.225Z,2.01
2019-03-20T04:43:12.064Z,1.98
2019-03-20T04:45:41.084Z,1.95
2019-03-20T04:48:10.288Z,1.95
2019-03-20T04:50:39.117Z,1.93
2019-03-20T04:53:08.128Z,1.88
2019-03-20T04:55:37.376Z,1.87
2019-03-20T04:58:06.906Z,1.84
2019-03-20T05:00:36.118Z,1.81
2019-03-20T05:03:05.342Z,1.78
2019-03-20T05:05:34.598Z,1.74
2019-03-20T05:08:03.803Z,1.71
2019-03-20T05:10:33.001Z,1.71
2019-03-20T05:13:02.006Z,1.72
2019-03-20T05:15:30.917Z,1.73
2019-03-20T05:17:59.812Z,1.75
2019-03-20T05:20:28.886Z,1.76
2019-03-20T05:22:58.400Z,1.78
2019-03-20T05:25:28.091Z,1.79
2019-03-20T05:27:57.513Z,1.79
2019-03-20T05:30:26.663Z,1.78
2019-03-20T05:32:55.480Z,1.77
2019-03-20T05:35:24.786Z,1.77
2019-03-20T05:37:53.972Z,1.78
2019-03-20T05:40:23.666Z,1.79
2019-03-20T05:42:52.870Z,1.81
2019-03-20T05:45:22.086Z,1.81
2019-03-20T05:47:51.309Z,1.84
2019-03-20T05:50:20.470Z,1.88
2019-03-20T05:52:49.460Z,1.92
2019-03-20T05:55:18.711Z,1.95
2019-03-20T05:57:47.713Z,2.03
2019-03-20T06:00:17.556Z,2.07
2019-03-20T06:02:46.788Z,2.14
2019-03-20T06:05:16.112Z,2.21
2019-03-20T06:07:45.943Z,2.32
2019-03-20T06:10:15.297Z,2.43
2019-03-20T06:12:44.784Z,2.58
2019-03-20T06:15:14.719Z,2.70
2019-03-20T06:17:43.705Z,2.82
2019-03-20T06:20:13.372Z,2.85
2019-03-20T06:22:42.455Z,2.95
2019-03-20T06:25:11.638Z,3.10
2019-03-20T06:27:41.184Z,3.31
2019-03-20T06:30:12.958Z,3.47
2019-03-20T06:32:41.927Z,3.61
2019-03-20T06:35:10.960Z,3.70
2019-03-20T06:37:40.218Z,3.74
2019-03-20T06:40:09.870Z,3.81
2019-03-20T06:42:39.282Z,3.85
2019-03-20T06:45:10.498Z,3.90
2019-03-20T06:47:39.800Z,3.93
2019-03-20T06:50:12.281Z,3.96
2019-03-20T06:52:41.530Z,4.01
2019-03-20T06:55:11.146Z,4.07
2019-03-20T06:57:40.142Z,4.17
2019-03-20T07:00:37.153Z,4.26
2019-03-20T07:03:10.301Z,4.36
2019-03-20T07:06:00.412Z,4.47
2019-03-20T07:08:33.306Z,4.52
2019-03-20T07:11:11.511Z,4.59
2019-03-20T07:13:40.568Z,4.62
2019-03-20T07:16:09.583Z,4.67
2019-03-20T07:18:38.585Z,4.74
2019-03-20T07:21:07.523Z,4.80
2019-03-20T07:23:36.525Z,4.88
2019-03-20T07:26:05.669Z,4.99
2019-03-20T07:28:34.768Z,5.07
2019-03-20T07:31:14.240Z,5.15
2019-03-20T07:33:36.096Z,5.22
2019-03-20T07:36:05.744Z,5.28
2019-03-20T07:38:35.355Z,5.33
2019-03-20T07:41:04.654Z,5.35
2019-03-20T07:43:33.711Z,5.36
2019-03-20T07:46:03.006Z,5.43
2019-03-20T07:48:32.463Z,5.51
2019-03-20T07:51:01.647Z,5.58
2019-03-20T07:53:30.677Z,5.62
2019-03-20T07:56:00.279Z,5.63
2019-03-20T07:58:29.519Z,5.62
2019-03-20T08:00:58.400Z,5.63
2019-03-20T08:03:27.225Z,5.64
2019-03-20T08:05:56.309Z,5.69
2019-03-20T08:08:25.523Z,5.71
2019-03-20T08:10:54.848Z,5.74
2019-03-20T08:13:23.970Z,5.78
2019-03-20T08:15:52.786Z,5.80
2019-03-20T08:18:22.075Z,5.89
2019-03-20T08:20:51.154Z,5.96
2019-03-20T08:23:20.065Z,5.99
2019-03-20T08:25:49.131Z,6.02
2019-03-20T08:28:18.192Z,6.06
2019-03-20T08:30:47.098Z,6.10
2019-03-20T08:33:16.362Z,6.16
2019-03-20T08:35:45.560Z,6.24
2019-03-20T08:38:18.521Z,6.33
2019-03-20T08:40:45.669Z,6.41
2019-03-20T08:43:25.366Z,6.52
2019-03-20T08:45:54.562Z,6.66
2019-03-20T08:48:23.599Z,6.79
2019-03-20T08:50:52.973Z,6.87
2019-03-20T08:53:24.135Z,6.91
2019-03-20T08:55:53.414Z,6.95
2019-03-20T08:58:22.574Z,7.04
2019-03-20T09:00:51.653Z,7.13
2019-03-20T09:03:21.179Z,7.24
2019-03-20T09:05:50.438Z,7.37
2019-03-20T09:08:28.828Z,7.46
2019-03-20T09:10:50.769Z,7.50
2019-03-20T09:13:19.712Z,7.55
2019-03-20T09:15:48.642Z,7.64
2019-03-20T09:18:17.535Z,7.73
2019-03-20T09:20:46.822Z,7.80
2019-03-20T09:23:16.335Z,7.94
2019-03-20T09:25:45.274Z,8.09
2019-03-20T09:28:14.122Z,8.26
2019-03-20T09:30:43.748Z,8.40
2019-03-20T09:33:12.700Z,8.50
2019-03-20T09:35:41.679Z,8.57
2019-03-20T09:38:10.710Z,8.63
2019-03-20T09:40:40.419Z,8.61
2019-03-20T09:43:09.719Z,8.57
2019-03-20T09:45:39.769Z,8.55
2019-03-20T09:48:11.931Z,8.54
2019-03-20T09:50:41.772Z,8.56
2019-03-20T09:53:10.945Z,8.55
2019-03-20T09:55:43.180Z,8.56
2019-03-20T09:58:12.474Z,8.58
2019-03-20T10:00:41.915Z,8.59
2019-03-20T10:03:10.760Z,8.60
2019-03-20T10:05:39.653Z,8.65
2019-03-20T10:08:08.782Z,8.75
2019-03-20T10:10:38.047Z,8.88
2019-03-20T10:13:06.980Z,8.95
2019-03-20T10:15:36.660Z,9.00
2019-03-20T10:18:05.618Z,9.07
2019-03-20T10:20:34.582Z,9.15
2019-03-20T10:23:03.609Z,9.17
2019-03-20T10:25:43.910Z,9.17
2019-03-20T10:28:04.060Z,9.19
2019-03-20T10:30:33.175Z,9.19
2019-03-20T10:33:02.304Z,9.16
2019-03-20T10:35:33.596Z,9.11
2019-03-20T10:38:02.885Z,9.05
2019-03-20T10:40:31.780Z,8.99
2019-03-20T10:43:00.853Z,8.93
2019-03-20T10:45:30.095Z,8.89
2019-03-20T10:47:59.356Z,8.85
2019-03-20T10:50:28.352Z,8.80
2019-03-20T10:52:57.369Z,8.77
2019-03-20T10:55:26.700Z,8.75
2019-03-20T10:57:55.845Z,8.73
2019-03-20T11:00:25.094Z,8.69
2019-03-20T11:02:54.154Z,8.67
2019-03-20T11:05:23.410Z,8.68
2019-03-20T11:07:52.451Z,8.68
2019-03-20T11:10:25.049Z,8.73
2019-03-20T11:12:59.200Z,8.75
2019-03-20T11:15:29.794Z,8.80
2019-03-20T11:17:59.072Z,8.89
2019-03-20T11:20:28.226Z,8.95
2019-03-20T11:23:00.063Z,9.01
2019-03-20T11:25:41.781Z,9.07
2019-03-20T11:28:12.796Z,9.12
2019-03-20T11:30:43.978Z,9.16
2019-03-20T11:33:15.050Z,9.17
2019-03-20T11:35:47.424Z,9.17
2019-03-20T11:38:19.808Z,9.15
2019-03-20T11:40:50.736Z,9.13
2019-03-20T11:43:19.534Z,9.09
2019-03-20T11:45:48.648Z,9.05
2019-03-20T11:48:17.558Z,9.02
2019-03-20T11:50:46.549Z,8.95
2019-03-20T11:53:22.776Z,8.90
2019-03-20T11:56:09.028Z,8.88
2019-03-20T11:58:44.008Z,8.86
2019-03-20T12:01:22.793Z,8.84
2019-03-20T12:04:00.269Z,8.81
2019-03-20T12:06:33.508Z,8.81
2019-03-20T12:09:12.805Z,8.81
2019-03-20T12:11:46.144Z,8.80
2019-03-20T12:14:50.686Z,8.80
2019-03-20T12:17:38.779Z,8.80
2019-03-20T12:20:14.177Z,8.80
2019-03-20T12:22:56.305Z,8.80
2019-03-20T12:25:35.497Z,8.82
2019-03-20T12:28:07.632Z,8.82
2019-03-20T12:30:40.541Z,8.85
2019-03-20T12:33:13.840Z,8.85
2019-03-20T12:35:44.393Z,8.89
2019-03-20T12:38:15.721Z,8.91
2019-03-20T12:40:45.428Z,8.92
2019-03-20T12:43:15.006Z,8.92
2019-03-20T12:45:44.343Z,8.91
2019-03-20T12:48:13.472Z,8.90
2019-03-20T12:50:42.374Z,8.89
2019-03-20T12:53:12.570Z,8.86
2019-03-20T12:55:41.782Z,8.87
2019-03-20T12:58:11.041Z,8.87
2019-03-20T13:00:40.581Z,8.87
2019-03-20T13:03:09.750Z,8.88
2019-03-20T13:05:38.900Z,8.85
2019-03-20T13:08:08.222Z,8.87
2019-03-20T13:10:37.556Z,8.88
2019-03-20T13:13:06.594Z,8.88
2019-03-20T13:15:35.725Z,8.89
2019-03-20T13:18:04.975Z,8.89
2019-03-20T13:20:34.219Z,8.90
2019-03-20T13:23:11.207Z,8.91
2019-03-20T13:25:40.468Z,8.91
2019-03-20T13:28:09.526Z,8.90
2019-03-20T13:30:41.634Z,8.91
2019-03-20T13:33:11.014Z,8.94
2019-03-20T13:35:40.225Z,8.96
2019-03-20T13:38:09.346Z,8.98
2019-03-20T13:40:45.335Z,9.00
2019-03-20T13:43:15.103Z,9.03
2019-03-20T13:45:44.111Z,9.05
2019-03-20T13:48:14.646Z,9.05
2019-03-20T13:50:43.826Z,9.06
2019-03-20T13:53:15.225Z,9.07
2019-03-20T13:55:44.364Z,9.10
2019-03-20T13:58:13.994Z,9.10
2019-03-20T14:00:43.160Z,9.09
2019-03-20T14:03:12.205Z,9.08
2019-03-20T14:05:41.138Z,9.07
2019-03-20T14:08:10.388Z,9.07
2019-03-20T14:10:49.523Z,9.07
2019-03-20T14:13:10.840Z,9.09
2019-03-20T14:15:39.771Z,9.10
2019-03-20T14:18:08.764Z,9.09
2019-03-20T14:20:37.861Z,9.10
2019-03-20T14:23:07.192Z,9.10
2019-03-20T14:25:36.313Z,9.10
2019-03-20T14:28:05.794Z,9.10
2019-03-20T14:30:34.743Z,9.09
2019-03-20T14:33:05.175Z,9.10
2019-03-20T14:35:34.476Z,9.10
2019-03-20T14:38:03.923Z,9.11
2019-03-20T14:40:36.089Z,9.13
2019-03-20T14:43:04.921Z,9.14
2019-03-20T14:45:34.122Z,9.16
2019-03-20T14:48:03.152Z,9.17
2019-03-20T14:50:36.604Z,9.17
2019-03-20T14:53:05.985Z,9.17
2019-03-20T14:55:34.826Z,9.18
2019-03-20T14:58:03.761Z,9.21
2019-03-20T15:00:33.286Z,9.22
2019-03-20T15:03:02.746Z,9.25
2019-03-20T15:05:31.656Z,9.24
2019-03-20T15:08:08.531Z,9.22
2019-03-20T15:10:46.255Z,9.21
2019-03-20T15:13:14.831Z,9.20
2019-03-20T15:16:14.470Z,9.21
2019-03-20T15:18:48.368Z,9.21
2019-03-20T15:21:44.526Z,9.22
2019-03-20T15:24:32.644Z,9.20
2019-03-20T15:27:14.301Z,9.20
2019-03-20T15:29:46.950Z,9.21
2019-03-20T15:32:18.723Z,9.23
2019-03-20T15:34:51.603Z,9.23
2019-03-20T15:37:24.492Z,9.23
2019-03-20T15:40:02.369Z,9.22
2019-03-20T15:42:32.918Z,9.21
2019-03-20T15:45:08.360Z,9.20
2019-03-20T15:47:39.585Z,9.20
2019-03-20T15:50:24.446Z,9.19
2019-03-20T15:53:02.740Z,9.19
2019-03-20T15:55:34.517Z,9.16
2019-03-20T15:58:11.594Z,9.18
2019-03-20T16:00:45.907Z,9.17
2019-03-20T16:03:17.423Z,9.16
2019-03-20T16:05:48.190Z,9.15
2019-03-20T16:08:21.516Z,9.14
2019-03-20T16:11:06.687Z,9.12
2019-03-20T16:13:33.634Z,9.12
2019-03-20T16:16:03.242Z,9.10
2019-03-20T16:18:33.112Z,9.10
2019-03-20T16:21:03.680Z,9.09
2019-03-20T16:23:33.629Z,9.07
2019-03-20T16:26:03.221Z,9.07
2019-03-20T16:28:34.334Z,9.06
2019-03-20T16:31:06.728Z,9.05
2019-03-20T16:33:38.135Z,9.03
2019-03-20T16:36:11.442Z,9.02
2019-03-20T16:38:42.770Z,8.99
2019-03-20T16:41:16.768Z,8.99
2019-03-20T16:43:44.421Z,8.98
2019-03-20T16:46:16.708Z,8.97
2019-03-20T16:48:47.309Z,8.97
2019-03-20T16:51:18.946Z,8.94
2019-03-20T16:53:49.160Z,8.93
2019-03-20T16:56:22.475Z,8.93
2019-03-20T16:58:52.397Z,8.93
2019-03-20T17:01:25.495Z,8.91
2019-03-20T17:03:57.811Z,8.91
2019-03-20T17:06:37.194Z,8.91
2019-03-20T17:09:08.342Z,8.91
2019-03-20T17:11:41.910Z,8.89
2019-03-20T17:17:12.952Z,8.88
2019-03-20T17:19:55.937Z,8.88
2019-03-20T17:22:47.823Z,8.87
2019-03-20T17:25:17.569Z,8.88
2019-03-20T17:27:49.486Z,8.88
2019-03-20T17:30:21.601Z,8.86
2019-03-20T17:32:57.055Z,8.87
2019-03-20T17:35:26.191Z,8.85
2019-03-20T17:37:55.656Z,8.85
2019-03-20T17:40:25.398Z,8.85
2019-03-20T17:42:54.718Z,8.84
2019-03-20T17:45:24.117Z,8.84
2019-03-20T17:47:53.476Z,8.85
2019-03-20T17:50:25.982Z,8.84
2019-03-20T17:52:57.896Z,8.85
2019-03-20T17:55:27.219Z,8.87
2019-03-20T17:57:59.700Z,8.86
2019-03-20T18:00:36.612Z,8.84
2019-03-20T18:03:06.391Z,8.84
2019-03-20T18:05:35.998Z,8.84
2019-03-20T18:08:10.022Z,8.85
2019-03-20T18:10:39.890Z,8.88
2019-03-20T18:13:09.458Z,8.88
2019-03-20T18:15:40.613Z,8.87
2019-03-20T18:18:09.813Z,8.88
2019-03-20T18:20:41.772Z,8.88
2019-03-20T18:23:11.958Z,8.89
2019-03-20T18:25:41.628Z,8.87
2019-03-20T18:28:11.155Z,8.86
2019-03-20T18:30:40.611Z,8.87
2019-03-20T18:33:12.796Z,8.89
2019-03-20T18:38:55.263Z,8.88
2019-03-20T18:41:29.405Z,8.87
2019-03-20T18:44:06.763Z,8.87
2019-03-20T18:46:36.057Z,8.88
2019-03-20T18:49:13.477Z,8.89
2019-03-20T18:51:51.230Z,8.89
2019-03-20T18:54:23.543Z,8.90
2019-03-20T18:56:52.882Z,8.89
2019-03-20T18:59:25.499Z,8.89
2019-03-20T19:01:54.943Z,8.88
2019-03-20T19:07:05.668Z,8.89
2019-03-20T19:12:29.468Z,8.90
2019-03-20T19:14:59.208Z,8.90
2019-03-20T19:17:28.752Z,8.88
2019-03-20T19:19:58.552Z,8.88
2019-03-20T19:22:34.090Z,8.88
2019-03-20T19:25:04.165Z,8.90
2019-03-20T19:27:33.703Z,8.90
2019-03-20T19:30:05.670Z,8.91
2019-03-20T19:32:35.128Z,8.90
2019-03-20T19:35:07.710Z,8.91
2019-03-20T19:37:36.477Z,8.91
2019-03-20T19:40:07.258Z,8.91
2019-03-20T19:42:37.621Z,8.92
2019-03-20T19:45:07.554Z,8.92
2019-03-20T19:47:37.702Z,8.92
2019-03-20T19:50:10.873Z,8.92
2019-03-20T19:52:40.237Z,8.92
2019-03-20T19:55:09.887Z,8.92
2019-03-20T19:57:41.397Z,8.92
2019-03-20T20:00:16.853Z,8.92
2019-03-20T20:02:47.420Z,8.92
2019-03-20T20:05:16.840Z,8.92
2019-03-20T20:07:54.372Z,8.92
2019-03-20T20:10:25.119Z,8.92
2019-03-20T20:12:54.521Z,8.92
2019-03-20T20:15:54.135Z,8.91
2019-03-20T20:18:23.880Z,8.93
2019-03-20T20:21:37.878Z,8.93
2019-03-20T20:25:45.948Z,8.93
2019-03-20T20:26:46.774Z,8.92
2019-03-20T20:29:52.857Z,8.93
2019-03-20T20:32:25.008Z,8.91
2019-03-20T20:34:53.987Z,8.90
2019-03-20T20:37:23.029Z,8.90
2019-03-20T20:39:52.513Z,8.89
2019-03-20T20:42:42.289Z,8.89
2019-03-20T20:45:03.168Z,8.88
2019-03-20T20:47:32.714Z,8.88
2019-03-20T20:50:02.000Z,8.87
2019-03-20T20:52:31.084Z,8.87
2019-03-20T20:55:00.347Z,8.86
2019-03-20T20:57:29.690Z,8.87
2019-03-20T20:59:59.035Z,8.85
2019-03-20T21:02:28.178Z,8.85
2019-03-20T21:05:00.707Z,8.83
2019-03-20T21:07:30.106Z,8.84
2019-03-20T21:09:59.179Z,8.83
2019-03-20T21:12:28.100Z,8.81
2019-03-20T21:14:57.270Z,8.81
2019-03-20T21:17:39.827Z,8.81
2019-03-20T21:20:09.044Z,8.81
2019-03-20T21:23:18.826Z,8.80
2019-03-20T21:25:48.590Z,8.79
2019-03-20T21:29:03.321Z,8.79
2019-03-20T21:31:52.477Z,8.78
2019-03-20T21:35:21.385Z,8.78
2019-03-20T21:38:04.817Z,8.78
2019-03-20T21:41:01.112Z,8.78
2019-03-20T21:43:56.558Z,8.79
2019-03-20T21:46:46.832Z,8.77
2019-03-20T21:49:19.095Z,8.77
2019-03-20T21:51:48.893Z,8.75
2019-03-20T21:54:55.234Z,8.74
2019-03-20T21:57:47.264Z,8.74
2019-03-20T22:00:59.262Z,8.73
2019-03-20T22:03:29.328Z,8.70
2019-03-20T22:06:38.321Z,8.67
2019-03-20T22:09:31.862Z,8.66
2019-03-20T22:12:36.201Z,8.64
2019-03-20T22:15:16.650Z,8.60
2019-03-20T22:18:42.593Z,8.56
2019-03-20T22:21:41.500Z,8.54
2019-03-20T22:25:09.711Z,8.51
2019-03-20T22:28:09.890Z,8.51
2019-03-20T22:30:39.942Z,8.49
2019-03-20T22:33:45.686Z,8.51
2019-03-20T22:36:20.114Z,8.51
2019-03-20T22:39:58.598Z,8.48
2019-03-20T22:42:53.274Z,8.48
2019-03-20T22:46:12.601Z,8.45
2019-03-20T22:49:14.434Z,8.48
2019-03-20T22:52:15.145Z,8.48
2019-03-20T22:55:27.758Z,8.50
2019-03-20T23:01:56.519Z,8.51
2019-03-20T23:04:35.324Z,8.54
2019-03-20T23:07:05.317Z,8.54
2019-03-20T23:09:37.210Z,8.55
2019-03-20T23:12:10.326Z,8.56
2019-03-20T23:14:41.344Z,8.58
2019-03-20T23:17:10.920Z,8.59
2019-03-20T23:19:41.695Z,8.60
2019-03-20T23:22:12.370Z,8.61
2019-03-20T23:24:42.539Z,8.61
2019-03-20T23:27:15.769Z,8.62
2019-03-20T23:29:45.657Z,8.65
2019-03-20T23:32:15.630Z,8.66
2019-03-20T23:34:45.267Z,8.68
2019-03-20T23:37:15.848Z,8.69
2019-03-20T23:39:45.809Z,8.69
2019-03-20T23:42:15.780Z,8.70
2019-03-20T23:44:46.101Z,8.70
2019-03-20T23:47:16.166Z,8.72
2019-03-20T23:49:46.342Z,8.74
2019-03-20T23:52:16.349Z,8.76
2019-03-20T23:54:51.711Z,8.76
2019-03-20T23:57:21.248Z,8.77
2019-03-20T23:59:51.308Z,8.78
